Time;durP1;ratioP1;P1;durP2;ratioP2;P2;SDS_P1;SDS_P2;PMS_P1;PMS_P2;Temp;Humidity;BMP_temperature;BMP_pressure;BME280_temperature;BME280_humidity;BME280_pressure;Samples;Min_cycle;Max_cycle;Signal;HPM_P1;HPM_P2
2023/01/11 13:00:16;;;;;;;0.90;0.90;;;;;;;10.96;100.00;98466.50;5130533;27;21115;-84
2023/01/11 13:03:10;;;;;;;1.57;0.80;;;;;;;11.81;100.00;98550.56;5095319;27;39017;-85
2023/01/11 13:05:47;;;;;;;0.80;0.70;;;;;;;11.91;100.00;98548.91;5112421;27;41757;-83
2023/01/11 13:08:21;;;;;;;0.60;0.60;;;;;;;12.16;100.00;98563.91;5111386;27;43270;-82
2023/01/11 13:10:58;;;;;;;0.77;0.77;;;;;;;12.03;100.00;98523.28;5112228;27;40821;-86
2023/01/11 13:13:35;;;;;;;0.77;0.67;;;;;;;12.07;100.00;98528.28;5111848;27;39040;-87
2023/01/11 13:16:13;;;;;;;1.00;0.80;;;;;;;12.14;100.00;98515.38;5111646;27;41110;-85
2023/01/11 13:18:48;;;;;;;0.70;0.70;;;;;;;12.45;100.00;98551.97;5111545;27;42842;-82
2023/01/11 13:21:28;;;;;;;0.57;0.57;;;;;;;12.59;100.00;98549.13;5111650;27;41037;-83
2023/01/11 13:24:02;;;;;;;0.60;0.60;;;;;;;12.69;98.93;98543.97;5128835;27;40419;-84
2023/01/11 13:26:35;;;;;;;0.70;0.60;;;;;;;12.71;97.19;98541.19;5128424;27;42130;-81
2023/01/11 13:29:08;;;;;;;0.50;0.50;;;;;;;12.64;96.97;98497.44;5127829;27;41902;-83
2023/01/11 13:31:37;;;;;;;0.50;0.50;;;;;;;13.01;96.71;98533.50;5112097;27;42468;-85
2023/01/11 13:34:15;;;;;;;1.70;0.70;;;;;;;13.11;95.42;98545.09;5111290;27;39154;-85
2023/01/11 13:36:50;;;;;;;0.70;0.70;;;;;;;13.16;94.97;98547.47;5111785;27;41000;-86
2023/01/11 13:39:23;;;;;;;0.60;0.60;;;;;;;13.14;93.68;98567.97;5128304;27;41691;-85
2023/01/11 13:41:53;;;;;;;0.83;0.70;;;;;;;12.94;93.29;98569.50;5111260;27;41151;-84
2023/01/11 13:44:24;;;;;;;1.37;0.90;;;;;;;12.98;93.04;98581.59;5111244;27;39026;-85
2023/01/11 13:47:02;;;;;;;0.50;0.50;;;;;;;12.71;93.42;98552.66;5128521;27;41434;-87
2023/01/11 13:50:00;;;;;;;0.87;0.60;;;;;;;12.87;93.85;98584.22;5146558;27;41771;-86
2023/01/11 13:52:42;;;;;;;1.40;0.70;;;;;;;12.82;93.68;98591.72;5115370;27;43181;-87
2023/01/11 13:55:15;;;;;;;0.77;0.77;;;;;;;12.71;93.54;98591.66;5146239;27;38560;-87
2023/01/11 13:57:50;;;;;;;1.20;0.90;;;;;;;12.48;93.56;98567.69;5110620;27;40412;-88
2023/01/11 14:00:22;;;;;;;1.33;1.23;;;;;;;12.55;93.42;98584.84;5099207;28;41642;-82
2023/01/11 14:02:58;;;;;;;2.80;1.70;;;;;;;12.22;93.46;98544.88;5147186;27;42026;-85
2023/01/11 14:05:33;;;;;;;1.57;1.47;;;;;;;12.46;93.60;98593.50;5097472;28;39276;-85
2023/01/11 14:08:16;;;;;;;1.20;1.10;;;;;;;12.46;94.05;98597.97;5114344;28;41723;-85
2023/01/11 14:10:53;;;;;;;0.90;0.90;;;;;;;12.49;94.18;98601.22;5097810;28;41583;-86
2023/01/11 14:16:38;;;;;;;0.80;0.80;;;;;;;12.70;93.25;98624.53;5097770;28;38774;-85
2023/01/11 14:19:18;;;;;;;1.00;1.00;;;;;;;12.76;93.50;98618.72;5096997;28;42927;-84
2023/01/11 14:22:00;;;;;;;1.30;1.07;;;;;;;12.79;93.35;98606.06;5097094;28;43689;-85
2023/01/11 14:24:30;;;;;;;1.00;1.00;;;;;;;12.95;92.95;98619.06;5097661;28;40670;-85
2023/01/11 14:27:28;;;;;;;1.50;1.23;;;;;;;13.06;92.96;98627.06;5097226;28;39821;-83
2023/01/11 14:30:13;;;;;;;1.33;1.23;;;;;;;13.15;92.30;98626.38;5113973;28;40759;-87
2023/01/11 14:33:00;;;;;;;1.53;1.20;;;;;;;13.05;91.16;98624.50;5096856;28;42960;-87
2023/01/11 14:36:09;;;;;;;1.17;0.90;;;;;;;12.95;91.26;98621.72;5097263;28;41923;-86
2023/01/11 14:39:05;;;;;;;1.07;0.97;;;;;;;12.96;90.97;98636.69;5113704;28;39067;-85
2023/01/11 14:41:55;;;;;;;2.70;0.87;;;;;;;12.90;91.15;98648.63;5097444;28;40770;-88
2023/01/11 14:44:48;;;;;;;0.90;0.90;;;;;;;12.73;90.17;98630.47;5097065;28;42445;-84
2023/01/11 14:47:47;;;;;;;0.90;0.90;;;;;;;12.80;90.42;98662.72;5096540;28;41835;-90
2023/01/11 14:50:25;;;;;;;1.10;0.80;;;;;;;12.74;90.09;98657.84;5113275;28;40165;-86
2023/01/11 14:52:59;;;;;;;0.77;0.77;;;;;;;12.72;90.56;98662.44;5098893;28;40654;-90
2023/01/11 14:55:36;;;;;;;2.20;1.37;;;;;;;12.62;90.59;98654.28;5132647;27;41874;-91
2023/01/11 14:58:16;;;;;;;2.00;1.10;;;;;;;12.63;90.73;98673.75;5096117;28;43351;-86
2023/01/11 15:01:05;;;;;;;1.33;1.13;;;;;;;12.57;90.61;98675.06;5097964;28;39058;-87
2023/01/11 15:03:53;;;;;;;0.70;0.70;;;;;;;12.50;90.44;98685.25;5096477;28;41224;-82
2023/01/11 15:06:22;;;;;;;1.23;0.70;;;;;;;12.34;89.10;98678.53;5111672;28;42556;-87
2023/01/11 15:08:53;;;;;;;0.67;0.60;;;;;;;12.22;89.08;98693.56;5096984;28;40765;-88
2023/01/11 15:11:40;;;;;;;1.50;0.70;;;;;;;12.06;89.21;98700.91;5096613;28;40389;-82
2023/01/11 15:14:31;;;;;;;1.90;0.70;;;;;;;11.77;88.61;98698.50;5112527;28;42218;-91
2023/01/11 15:19:49;;;;;;;1.20;0.50;;;;;;;11.52;89.22;98693.16;5096674;28;42329;-81
2023/01/11 15:22:25;;;;;;;0.60;0.60;;;;;;;11.28;89.29;98694.84;5115300;28;40325;-88
2023/01/11 15:25:00;;;;;;;0.73;0.40;;;;;;;11.26;90.07;98709.97;5097667;28;40911;-85
2023/01/11 15:27:32;;;;;;;1.40;0.60;;;;;;;11.13;90.53;98708.16;5096349;28;41996;-87
2023/01/11 15:30:00;;;;;;;1.33;0.60;;;;;;;11.07;91.06;98713.88;5113967;28;41065;-88
2023/01/11 15:32:29;;;;;;;0.60;0.60;;;;;;;10.98;91.59;98706.56;5113789;28;40631;-89
2023/01/11 15:35:17;;;;;;;0.87;0.63;;;;;;;10.99;92.04;98710.91;5096488;28;40764;-89
2023/01/11 15:37:52;;;;;;;0.90;0.60;;;;;;;10.71;92.59;98684.53;5096014;28;44979;-87
2023/01/11 15:40:25;;;;;;;0.77;0.77;;;;;;;10.80;92.72;98705.13;5096480;28;40997;-86
2023/01/11 15:43:26;;;;;;;1.57;0.80;;;;;;;10.92;93.31;98736.09;5096893;28;38894;-88
2023/01/11 15:49:25;;;;;;;0.80;0.63;;;;;;;10.84;93.71;98740.22;5095490;28;41728;-86
2023/01/11 15:52:28;;;;;;;0.80;0.80;;;;;;;10.54;93.99;98714.75;5130314;27;41355;-90
